createdAt,value
2017-10-13T00:01:51.545Z,11.27
2017-10-13T00:04:18.938Z,11.26
2017-10-13T00:06:46.327Z,11.32
2017-10-13T00:09:13.715Z,11.36
2017-10-13T00:11:41.106Z,11.39
2017-10-13T00:14:08.509Z,11.36
2017-10-13T00:16:35.911Z,11.34
2017-10-13T00:19:03.295Z,11.35
2017-10-13T00:21:30.687Z,11.38
2017-10-13T00:23:58.070Z,11.32
2017-10-13T00:26:25.471Z,11.31
2017-10-13T00:28:52.859Z,11.36
2017-10-13T00:31:20.259Z,11.17
2017-10-13T00:33:47.645Z,11.14
2017-10-13T00:36:15.035Z,11.28
2017-10-13T00:38:42.425Z,11.35
2017-10-13T00:41:09.814Z,11.32
2017-10-13T00:43:37.199Z,11.30
2017-10-13T00:46:04.607Z,11.32
2017-10-13T00:48:32.003Z,11.32
2017-10-13T00:50:59.402Z,11.40
2017-10-13T00:53:26.782Z,11.45
2017-10-13T00:55:54.187Z,11.46
2017-10-13T00:58:21.580Z,11.56
2017-10-13T01:00:48.974Z,11.36
2017-10-13T01:03:16.358Z,11.50
2017-10-13T01:05:43.866Z,11.55
2017-10-13T01:08:11.258Z,11.55
2017-10-13T01:10:38.646Z,11.69
2017-10-13T01:13:06.035Z,11.57
2017-10-13T01:15:33.418Z,11.68
2017-10-13T01:18:00.812Z,11.77
2017-10-13T01:20:28.202Z,11.74
2017-10-13T01:22:55.595Z,11.69
2017-10-13T01:25:22.998Z,11.62
2017-10-13T01:27:50.394Z,11.44
2017-10-13T01:30:17.787Z,11.60
2017-10-13T01:32:45.182Z,11.71
2017-10-13T01:35:12.574Z,11.78
2017-10-13T01:37:39.966Z,11.55
2017-10-13T01:40:07.366Z,11.59
2017-10-13T01:42:34.787Z,11.69
2017-10-13T01:45:02.251Z,11.76
2017-10-13T01:47:29.707Z,11.71
2017-10-13T01:49:57.110Z,11.54
2017-10-13T01:52:24.498Z,11.68
2017-10-13T01:54:51.979Z,11.64
2017-10-13T01:57:19.365Z,11.53
2017-10-13T01:59:46.762Z,11.62
2017-10-13T02:02:14.153Z,11.46
2017-10-13T02:04:41.551Z,11.51
2017-10-13T02:07:08.941Z,11.60
2017-10-13T02:09:36.339Z,11.54
2017-10-13T02:12:03.731Z,11.50
2017-10-13T02:14:31.218Z,11.52
2017-10-13T02:16:58.610Z,11.55
2017-10-13T02:19:26.005Z,11.67
2017-10-13T02:21:53.393Z,11.65
2017-10-13T02:24:20.790Z,11.63
2017-10-13T02:26:48.182Z,11.62
2017-10-13T02:29:15.612Z,11.77
2017-10-13T02:31:43.002Z,11.79
2017-10-13T02:34:10.398Z,11.92
2017-10-13T02:36:37.786Z,11.89
2017-10-13T02:39:05.183Z,11.97
2017-10-13T02:41:32.575Z,12.00
2017-10-13T02:43:59.966Z,12.01
2017-10-13T02:46:27.364Z,12.00
2017-10-13T02:48:54.770Z,11.99
2017-10-13T02:51:22.162Z,12.03
2017-10-13T02:53:49.602Z,12.11
2017-10-13T02:56:16.986Z,11.86
2017-10-13T02:58:44.387Z,11.90
2017-10-13T03:01:11.782Z,11.90
2017-10-13T03:03:39.181Z,12.00
2017-10-13T03:06:06.567Z,12.10
2017-10-13T03:08:33.957Z,11.95
2017-10-13T03:11:01.402Z,12.12
2017-10-13T03:13:28.795Z,12.19
2017-10-13T03:15:56.190Z,12.15
2017-10-13T03:18:23.582Z,12.12
2017-10-13T03:20:50.975Z,12.17
2017-10-13T03:23:18.371Z,12.17
2017-10-13T03:25:45.763Z,12.11
2017-10-13T03:28:13.146Z,12.09
2017-10-13T03:30:40.543Z,12.11
2017-10-13T03:33:07.931Z,12.19
2017-10-13T03:35:35.334Z,12.18
2017-10-13T03:38:02.771Z,12.19
2017-10-13T03:40:30.168Z,12.18
2017-10-13T03:42:57.554Z,12.13
2017-10-13T03:45:24.953Z,12.15
2017-10-13T03:47:52.333Z,12.15
2017-10-13T03:50:19.729Z,12.15
2017-10-13T03:52:47.118Z,12.08
2017-10-13T03:55:14.514Z,12.04
2017-10-13T03:57:41.911Z,12.05
2017-10-13T04:00:09.323Z,12.02
2017-10-13T04:02:36.710Z,11.96
2017-10-13T04:05:04.103Z,11.95
2017-10-13T04:07:31.503Z,12.00
2017-10-13T04:09:58.895Z,11.99
2017-10-13T04:12:26.287Z,11.96
2017-10-13T04:14:53.689Z,11.94
2017-10-13T04:17:21.174Z,11.92
2017-10-13T04:19:48.566Z,11.85
2017-10-13T04:22:15.981Z,11.72
2017-10-13T04:24:43.371Z,11.75
2017-10-13T04:27:10.771Z,11.73
2017-10-13T04:29:38.158Z,11.75
2017-10-13T04:32:05.556Z,11.71
2017-10-13T04:34:32.946Z,11.73
2017-10-13T04:37:00.341Z,11.74
2017-10-13T04:39:27.734Z,11.73
2017-10-13T04:41:55.135Z,11.74
2017-10-13T04:44:22.511Z,11.77
2017-10-13T04:46:49.911Z,11.85
2017-10-13T04:49:17.298Z,11.84
2017-10-13T04:51:44.695Z,11.87
2017-10-13T04:54:12.087Z,11.85
2017-10-13T04:56:39.487Z,11.78
2017-10-13T04:59:06.881Z,11.76
2017-10-13T05:01:34.278Z,11.72
2017-10-13T05:04:01.662Z,11.74
2017-10-13T05:06:29.062Z,11.70
2017-10-13T05:08:56.454Z,11.58
2017-10-13T05:11:23.859Z,11.55
2017-10-13T05:13:51.250Z,11.53
2017-10-13T05:16:18.707Z,11.43
2017-10-13T05:18:46.091Z,11.42
2017-10-13T05:21:13.483Z,11.40
2017-10-13T05:23:40.874Z,11.22
2017-10-13T05:26:08.288Z,11.26
2017-10-13T05:28:35.681Z,11.15
2017-10-13T05:31:03.135Z,11.19
2017-10-13T05:33:30.536Z,11.26
2017-10-13T05:35:57.938Z,11.27
2017-10-13T05:38:25.343Z,11.22
2017-10-13T05:40:52.726Z,11.18
2017-10-13T05:43:20.140Z,11.21
2017-10-13T05:45:47.535Z,11.16
2017-10-13T05:48:14.926Z,11.17
2017-10-13T05:50:42.314Z,11.05
2017-10-13T05:53:09.706Z,11.21
2017-10-13T05:55:37.102Z,11.20
2017-10-13T05:58:04.509Z,11.46
2017-10-13T06:00:31.898Z,11.55
2017-10-13T06:02:59.298Z,11.71
2017-10-13T06:05:26.690Z,11.77
2017-10-13T06:07:54.179Z,11.96
2017-10-13T06:10:21.576Z,11.91
2017-10-13T06:12:48.975Z,11.95
2017-10-13T06:15:16.378Z,11.66
2017-10-13T06:17:43.770Z,11.89
2017-10-13T06:20:11.169Z,12.04
2017-10-13T06:22:38.581Z,12.28
2017-10-13T06:25:05.971Z,12.41
2017-10-13T06:27:33.361Z,12.66
2017-10-13T06:30:00.755Z,12.86
2017-10-13T06:32:28.146Z,13.02
2017-10-13T06:34:55.546Z,13.19
2017-10-13T06:37:23.022Z,12.98
2017-10-13T06:39:50.482Z,13.09
2017-10-13T06:42:17.883Z,13.03
2017-10-13T06:44:45.279Z,13.06
2017-10-13T06:47:12.676Z,13.12
2017-10-13T06:49:40.074Z,13.06
2017-10-13T06:52:07.464Z,13.28
2017-10-13T06:54:34.863Z,13.06
2017-10-13T06:57:02.267Z,13.29
2017-10-13T06:59:29.646Z,13.27
2017-10-13T07:01:57.042Z,13.17
2017-10-13T07:04:24.439Z,13.26
2017-10-13T07:06:51.830Z,13.25
2017-10-13T07:09:19.235Z,13.28
2017-10-13T07:11:46.627Z,13.18
2017-10-13T07:14:14.031Z,13.42
2017-10-13T07:16:41.429Z,13.50
2017-10-13T07:19:08.822Z,13.61
2017-10-13T07:21:36.323Z,13.75
2017-10-13T07:24:06.619Z,13.83
2017-10-13T07:26:34.026Z,13.95
2017-10-13T07:29:01.428Z,13.88
2017-10-13T07:31:28.818Z,13.85
2017-10-13T07:33:56.214Z,13.68
2017-10-13T07:36:23.626Z,13.55
2017-10-13T07:38:51.031Z,13.54
2017-10-13T07:41:18.418Z,13.68
2017-10-13T07:43:45.900Z,13.71
2017-10-13T07:46:13.284Z,13.83
2017-10-13T07:48:40.678Z,14.00
2017-10-13T07:51:08.098Z,13.91
2017-10-13T07:53:35.508Z,14.13
2017-10-13T07:56:02.890Z,14.04
2017-10-13T07:58:30.367Z,14.29
2017-10-13T08:00:57.758Z,14.34
2017-10-13T08:03:25.143Z,14.03
2017-10-13T08:05:52.603Z,14.31
2017-10-13T08:08:19.994Z,14.27
2017-10-13T08:10:47.446Z,14.46
2017-10-13T08:13:14.838Z,14.78
2017-10-13T08:15:42.234Z,14.71
2017-10-13T08:18:09.720Z,14.74
2017-10-13T08:20:37.114Z,14.75
2017-10-13T08:23:04.510Z,14.82
2017-10-13T08:25:31.920Z,15.03
2017-10-13T08:27:59.312Z,14.76
2017-10-13T08:30:26.705Z,14.80
2017-10-13T08:32:54.160Z,15.08
2017-10-13T08:35:21.546Z,15.36
2017-10-13T08:37:48.950Z,15.39
2017-10-13T08:40:16.340Z,15.59
2017-10-13T11:44:46.531Z,19.07
2017-10-13T11:47:14.019Z,18.98
2017-10-13T11:49:41.435Z,18.96
2017-10-13T11:52:08.821Z,18.77
2017-10-13T11:54:36.215Z,19.07
2017-10-13T11:57:03.612Z,19.19
2017-10-13T11:59:31.000Z,19.16
2017-10-13T12:01:58.471Z,19.16
2017-10-13T12:04:25.846Z,19.17
2017-10-13T12:06:53.243Z,18.99
2017-10-13T12:09:20.642Z,19.03
2017-10-13T12:11:48.031Z,19.35
2017-10-13T12:14:15.423Z,19.29
2017-10-13T12:16:42.818Z,19.12
2017-10-13T12:19:10.251Z,19.42
2017-10-13T12:21:37.650Z,19.39
2017-10-13T12:24:05.067Z,19.63
2017-10-13T12:26:32.458Z,19.94
2017-10-13T12:28:59.847Z,20.08
2017-10-13T12:31:27.243Z,19.73
2017-10-13T12:33:54.635Z,19.92
2017-10-13T12:36:22.915Z,19.66
2017-10-13T12:38:50.318Z,19.45
2017-10-13T12:41:17.716Z,19.67
2017-10-13T12:43:45.133Z,19.58
2017-10-13T12:46:12.520Z,19.74
2017-10-13T12:48:39.942Z,19.73
2017-10-13T12:51:07.326Z,19.88
2017-10-13T12:53:34.751Z,19.89
2017-10-13T12:56:02.160Z,19.78
2017-10-13T12:58:29.534Z,20.05
2017-10-13T13:00:56.934Z,20.10
2017-10-13T13:03:24.327Z,20.04
2017-10-13T13:05:51.723Z,20.07
2017-10-13T13:08:19.114Z,19.85
2017-10-13T13:10:46.514Z,20.02
2017-10-13T13:13:13.915Z,19.62
2017-10-13T13:15:41.302Z,19.94
2017-10-13T13:18:08.699Z,20.15
2017-10-13T13:20:36.094Z,20.38
2017-10-13T13:23:03.501Z,20.35
2017-10-13T13:25:30.891Z,20.05
2017-10-13T13:27:58.284Z,20.06
2017-10-13T13:30:25.674Z,19.66
2017-10-13T13:32:53.070Z,19.81
2017-10-13T13:35:20.574Z,20.06
2017-10-13T13:37:47.979Z,20.05
2017-10-13T13:40:15.367Z,20.06
2017-10-13T13:42:42.759Z,20.40
2017-10-13T13:45:10.154Z,19.64
2017-10-13T13:47:37.546Z,19.56
2017-10-13T13:50:04.939Z,19.60
2017-10-13T13:52:32.327Z,19.71
2017-10-13T13:54:59.739Z,19.71
2017-10-13T13:57:27.127Z,19.50
2017-10-13T13:59:54.527Z,19.34
2017-10-13T14:02:21.916Z,19.52
2017-10-13T14:04:49.318Z,19.43
2017-10-13T14:07:16.744Z,19.57
2017-10-13T14:09:44.134Z,19.19
2017-10-13T14:12:11.526Z,19.42
2017-10-13T14:14:38.930Z,19.59
2017-10-13T14:17:06.465Z,19.57
2017-10-13T14:19:33.875Z,19.91
2017-10-13T14:22:01.262Z,20.16
2017-10-13T14:24:28.655Z,20.16
2017-10-13T14:26:56.051Z,20.37
2017-10-13T14:29:23.444Z,20.35
2017-10-13T14:31:50.904Z,19.87
2017-10-13T14:34:18.279Z,19.92
2017-10-13T14:36:45.671Z,20.04
2017-10-13T14:39:13.081Z,20.16
2017-10-13T14:41:40.470Z,20.33
2017-10-13T14:44:07.871Z,20.02
2017-10-13T14:46:35.262Z,20.16
2017-10-13T14:49:02.667Z,20.16
2017-10-13T14:51:30.063Z,19.95
2017-10-13T14:53:57.462Z,19.84
2017-10-13T14:56:25.015Z,19.63
2017-10-13T14:58:52.435Z,19.63
2017-10-13T15:01:19.830Z,19.83
2017-10-13T15:03:47.232Z,19.86
2017-10-13T15:06:14.622Z,19.71
2017-10-13T15:08:42.031Z,19.79
2017-10-13T15:11:09.441Z,19.66
2017-10-13T15:13:36.835Z,19.71
2017-10-13T15:16:04.227Z,19.73
2017-10-13T15:18:31.624Z,19.98
2017-10-13T15:20:59.010Z,19.80
2017-10-13T15:23:26.398Z,19.81
2017-10-13T15:25:54.709Z,19.91
2017-10-13T15:28:27.597Z,19.91
2017-10-13T15:31:00.595Z,19.88
2017-10-13T15:33:33.450Z,19.79
2017-10-13T15:36:06.328Z,19.76
2017-10-13T15:38:39.187Z,19.72
2017-10-13T15:44:15.134Z,19.70
2017-10-13T15:46:48.042Z,19.62
2017-10-13T15:49:31.130Z,19.40
2017-10-13T15:52:04.046Z,19.33
2017-10-13T15:54:31.435Z,19.44
2017-10-13T15:56:58.843Z,19.21
2017-10-13T15:59:26.235Z,19.10
2017-10-13T16:01:53.658Z,19.08
2017-10-13T16:04:21.052Z,18.87
2017-10-13T16:34:50.122Z,18.81
2017-10-13T16:37:17.511Z,19.01
2017-10-13T16:39:44.903Z,19.06
2017-10-13T16:42:12.291Z,19.02
2017-10-13T16:44:39.691Z,19.02
2017-10-13T16:47:07.078Z,18.87
2017-10-13T16:49:34.483Z,18.80
2017-10-13T16:52:01.871Z,18.93
2017-10-13T16:54:29.281Z,18.66
2017-10-13T16:56:56.741Z,18.63
2017-10-13T16:59:24.122Z,18.59
2017-10-13T17:01:51.536Z,18.40
2017-10-13T17:04:18.995Z,18.51
2017-10-13T17:06:46.386Z,18.49
2017-10-13T17:09:13.770Z,18.52
2017-10-13T17:11:41.159Z,18.26
2017-10-13T17:14:08.555Z,18.29
2017-10-13T17:16:35.949Z,18.24
2017-10-13T17:19:03.354Z,18.31
2017-10-13T17:21:30.746Z,18.28
2017-10-13T17:23:58.134Z,18.24
2017-10-13T17:26:25.534Z,18.22
2017-10-13T17:28:52.946Z,18.08
2017-10-13T17:31:20.350Z,18.05
2017-10-13T17:33:47.738Z,18.14
2017-10-13T17:36:15.134Z,17.98
2017-10-13T17:38:42.537Z,18.03
2017-10-13T17:41:09.927Z,17.91
2017-10-13T17:43:37.319Z,17.93
2017-10-13T17:46:04.719Z,17.90
2017-10-13T17:48:32.106Z,17.82
2017-10-13T17:50:59.530Z,17.68
2017-10-13T17:53:26.927Z,17.57
2017-10-13T17:55:54.318Z,17.44
2017-10-13T17:58:21.714Z,17.33
2017-10-13T18:00:49.119Z,17.35
2017-10-13T18:03:16.506Z,17.34
2017-10-13T18:05:43.915Z,17.24
2017-10-13T18:08:11.303Z,17.20
2017-10-13T18:10:38.791Z,17.24
2017-10-13T18:13:06.182Z,17.39
2017-10-13T18:15:33.574Z,17.20
2017-10-13T18:18:00.983Z,17.20
2017-10-13T18:20:28.380Z,17.14
2017-10-13T18:22:55.781Z,17.07
2017-10-13T18:25:23.176Z,17.33
2017-10-13T18:27:50.574Z,17.30
2017-10-13T18:30:18.055Z,17.29
2017-10-13T18:32:45.450Z,17.23
2017-10-13T18:35:12.947Z,17.33
2017-10-13T18:37:40.350Z,17.35
2017-10-13T18:40:07.766Z,17.35
2017-10-13T18:42:35.175Z,17.34
2017-10-13T18:45:02.559Z,17.56
2017-10-13T18:47:29.955Z,17.33
2017-10-13T18:49:57.355Z,17.37
2017-10-13T18:52:24.760Z,17.36
2017-10-13T18:54:52.146Z,17.34
2017-10-13T18:57:19.550Z,17.18
2017-10-13T18:59:46.942Z,17.34
2017-10-13T19:02:14.342Z,17.38
2017-10-13T19:04:41.742Z,17.54
2017-10-13T19:07:09.138Z,17.38
2017-10-13T19:09:36.531Z,17.46
2017-10-13T19:12:03.938Z,17.29
2017-10-13T19:14:31.580Z,17.36
2017-10-13T19:16:58.976Z,17.39
2017-10-13T19:19:26.372Z,17.41
2017-10-13T19:21:53.777Z,17.49
2017-10-13T19:24:21.250Z,17.40
2017-10-13T19:26:48.650Z,17.49
2017-10-13T19:29:16.046Z,17.64
2017-10-13T19:31:43.539Z,17.68
2017-10-13T19:34:10.939Z,17.74
2017-10-13T19:36:38.338Z,17.84
2017-10-13T19:39:05.738Z,17.91
2017-10-13T19:41:33.139Z,17.81
2017-10-13T19:44:00.531Z,17.94
2017-10-13T19:46:27.937Z,17.80
2017-10-13T19:48:55.329Z,17.97
2017-10-13T19:51:22.731Z,18.01
2017-10-13T19:53:50.127Z,18.17
2017-10-13T19:56:17.532Z,18.14
2017-10-13T19:58:44.922Z,18.20
2017-10-13T20:01:12.329Z,18.10
2017-10-13T20:03:39.740Z,18.15
2017-10-13T20:06:07.136Z,17.95
2017-10-13T20:08:34.527Z,18.01
2017-10-13T20:11:01.927Z,17.72
2017-10-13T20:13:29.319Z,17.75
2017-10-13T20:15:56.707Z,17.84
2017-10-13T20:18:24.117Z,18.03
2017-10-13T20:20:51.507Z,17.99
2017-10-13T20:23:18.910Z,17.89
2017-10-13T20:25:46.327Z,17.74
2017-10-13T20:28:13.733Z,17.78
2017-10-13T20:30:41.126Z,17.73
2017-10-13T20:33:08.526Z,17.68
2017-10-13T20:35:35.985Z,17.71
2017-10-13T20:38:03.375Z,17.76
2017-10-13T20:40:30.776Z,17.66
2017-10-13T20:42:58.182Z,17.66
2017-10-13T20:45:25.573Z,17.66
2017-10-13T20:47:52.974Z,17.56
2017-10-13T20:50:20.375Z,17.69
2017-10-13T20:52:47.875Z,17.69
2017-10-13T20:55:15.267Z,17.64
2017-10-13T20:57:42.662Z,17.50
2017-10-13T21:00:10.158Z,17.59
2017-10-13T21:02:37.552Z,17.63
2017-10-13T21:05:04.954Z,17.68
2017-10-13T21:07:32.346Z,17.45
2017-10-13T21:09:59.747Z,17.35
2017-10-13T21:12:27.143Z,17.32
2017-10-13T21:14:54.542Z,17.24
2017-10-13T21:17:21.935Z,17.37
2017-10-13T21:19:49.339Z,17.46
2017-10-13T21:22:16.739Z,17.49
2017-10-13T21:24:44.138Z,17.56
2017-10-13T21:27:11.531Z,17.57
2017-10-13T21:29:38.928Z,17.57
2017-10-13T21:32:06.322Z,17.72
2017-10-13T21:34:33.828Z,17.68
2017-10-13T21:37:01.225Z,17.78
2017-10-13T21:39:28.641Z,17.72
2017-10-13T21:41:56.035Z,17.72
2017-10-13T21:44:23.431Z,17.72
2017-10-13T21:46:50.835Z,17.76
2017-10-13T21:49:18.259Z,17.48
2017-10-13T21:51:45.658Z,17.54
2017-10-13T21:54:13.056Z,17.63
2017-10-13T21:56:40.458Z,17.57
2017-10-13T21:59:07.850Z,17.68
2017-10-13T22:01:35.258Z,17.54
2017-10-13T22:04:02.657Z,17.57
2017-10-13T22:06:30.063Z,17.59
2017-10-13T22:08:57.455Z,17.46
2017-10-13T22:11:24.858Z,17.32
2017-10-13T22:13:52.590Z,17.38
2017-10-13T22:16:20.434Z,17.54
2017-10-13T22:18:48.271Z,17.64
2017-10-13T22:21:16.035Z,17.53
2017-10-13T22:23:43.903Z,17.53
2017-10-13T22:26:11.791Z,17.50
2017-10-13T22:28:39.459Z,17.42
2017-10-13T22:31:07.155Z,17.68
2017-10-13T22:33:34.574Z,17.74
2017-10-13T22:36:01.977Z,17.64
2017-10-13T22:38:29.367Z,17.69
2017-10-13T22:40:56.785Z,17.71
2017-10-13T22:43:24.170Z,17.62
2017-10-13T22:45:51.562Z,17.46
2017-10-13T22:48:18.963Z,17.50
2017-10-13T22:50:46.359Z,17.65
2017-10-13T22:53:13.763Z,17.76
2017-10-13T22:55:41.154Z,17.53
2017-10-13T22:58:08.554Z,17.50
2017-10-13T23:00:35.957Z,17.53
2017-10-13T23:03:03.351Z,17.70
2017-10-13T23:05:30.743Z,17.68
2017-10-13T23:07:58.144Z,17.63
2017-10-13T23:10:25.534Z,17.65
2017-10-13T23:12:53.026Z,17.76
2017-10-13T23:15:20.422Z,17.87
2017-10-13T23:17:47.829Z,17.80
2017-10-13T23:20:15.223Z,17.68
2017-10-13T23:22:42.623Z,17.76
2017-10-13T23:25:10.014Z,17.63
2017-10-13T23:27:37.442Z,17.81
2017-10-13T23:30:04.834Z,17.89
2017-10-13T23:32:32.248Z,17.71
2017-10-13T23:34:59.643Z,17.93
2017-10-13T23:37:27.044Z,17.98
2017-10-13T23:39:54.434Z,17.91
2017-10-13T23:42:21.834Z,17.66
2017-10-13T23:44:49.242Z,17.76
2017-10-13T23:47:16.650Z,17.77
2017-10-13T23:49:44.043Z,17.77
2017-10-13T23:52:11.431Z,17.93
2017-10-13T23:54:38.822Z,17.73
2017-10-13T23:57:06.227Z,17.77
2017-10-13T23:59:33.632Z,17.73
